Time;durP1;ratioP1;P1;durP2;ratioP2;P2;SDS_P1;SDS_P2;PMS_P1;PMS_P2;Temp;Humidity;BMP_temperature;BMP_pressure;BME280_temperature;BME280_humidity;BME280_pressure;Samples;Min_cycle;Max_cycle;Signal;HPM_P1;HPM_P2
2021/10/13 00:01:23;;;;;;;9.57;5.20;;;;;;;;;;5087671;28;20281;-75
2021/10/13 00:03:50;;;;;;;8.70;5.77;;;;;;;;;;5084294;28;20289;-75
2021/10/13 00:06:17;;;;;;;10.03;5.87;;;;;;;;;;5086356;28;20213;-76
2021/10/13 00:08:44;;;;;;;12.10;5.27;;;;;;;;;;5107401;28;20634;-76
2021/10/13 00:11:11;;;;;;;7.37;4.47;;;;;;;;;;5083517;28;20705;-75
2021/10/13 00:13:40;;;;;;;6.90;4.20;;;;;;;;;;5088718;28;20202;-75
2021/10/13 00:16:07;;;;;;;7.33;4.80;;;;;;;;;;5077687;28;20208;-75
2021/10/13 00:18:34;;;;;;;8.90;5.00;;;;;;;;;;5091836;28;20321;-76
2021/10/13 00:21:02;;;;;;;8.53;4.93;;;;;;;;;;5081713;28;20298;-76
2021/10/13 00:23:29;;;;;;;8.43;5.33;;;;;;;;;;5085778;28;20316;-75
2021/10/13 00:25:56;;;;;;;8.10;4.87;;;;;;;;;;5078707;28;20307;-75
2021/10/13 00:28:23;;;;;;;6.63;4.90;;;;;;;;;;5077265;28;20229;-75
2021/10/13 00:30:52;;;;;;;7.70;4.97;;;;;;;;;;5100375;28;20282;-76
2021/10/13 00:33:19;;;;;;;9.57;5.20;;;;;;;;;;5084302;28;20233;-76
2021/10/13 00:35:46;;;;;;;8.90;5.17;;;;;;;;;;5088457;28;20288;-76
2021/10/13 00:38:13;;;;;;;12.90;6.27;;;;;;;;;;5084867;28;20301;-75
2021/10/13 00:40:40;;;;;;;8.70;5.47;;;;;;;;;;5093818;28;20235;-75
2021/10/13 00:43:08;;;;;;;8.17;5.60;;;;;;;;;;5094147;28;20276;-76
2021/10/13 00:45:35;;;;;;;12.03;5.60;;;;;;;;;;5094337;28;20281;-76
2021/10/13 00:48:03;;;;;;;7.73;4.77;;;;;;;;;;5093853;28;20271;-76
2021/10/13 00:50:31;;;;;;;6.57;4.87;;;;;;;;;;5074876;28;20281;-75
2021/10/13 00:52:58;;;;;;;7.27;4.40;;;;;;;;;;5074381;28;20229;-76
2021/10/13 00:55:25;;;;;;;6.70;4.97;;;;;;;;;;5092514;28;20202;-76
2021/10/13 00:57:53;;;;;;;9.63;5.27;;;;;;;;;;5085198;28;20249;-76
2021/10/13 01:00:21;;;;;;;7.30;4.77;;;;;;;;;;5087379;28;20288;-76
2021/10/13 01:02:56;;;;;;;6.50;4.70;;;;;;;;;;5100705;28;20223;-75
2021/10/13 01:08:31;;;;;;;7.67;5.00;;;;;;;;;;5129686;27;21046;-76
2021/10/13 01:11:05;;;;;;;9.57;5.23;;;;;;;;;;5129914;28;20279;-76
2021/10/13 01:13:39;;;;;;;9.43;5.67;;;;;;;;;;5129622;28;20229;-76
2021/10/13 01:16:12;;;;;;;8.40;5.17;;;;;;;;;;5130251;27;20230;-75
2021/10/13 01:18:41;;;;;;;7.87;4.97;;;;;;;;;;5130091;28;20288;-75
2021/10/13 01:21:14;;;;;;;7.83;4.80;;;;;;;;;;5129868;27;20247;-75
2021/10/13 01:23:54;;;;;;;7.57;5.50;;;;;;;;;;5129867;27;20680;-75
2021/10/13 01:26:26;;;;;;;7.70;4.97;;;;;;;;;;5131657;27;20309;-75
2021/10/13 01:28:57;;;;;;;6.93;4.83;;;;;;;;;;5134290;27;20223;-76
2021/10/13 01:31:25;;;;;;;11.73;5.27;;;;;;;;;;5130251;27;20291;-76
2021/10/13 01:33:54;;;;;;;7.73;5.10;;;;;;;;;;5129499;28;20236;-76
2021/10/13 01:36:25;;;;;;;8.67;4.93;;;;;;;;;;5130431;27;20262;-75
2021/10/13 01:38:53;;;;;;;7.53;4.40;;;;;;;;;;5129295;27;20296;-76
2021/10/13 01:41:22;;;;;;;7.97;5.23;;;;;;;;;;5129478;28;20289;-76
2021/10/13 01:43:50;;;;;;;10.80;5.50;;;;;;;;;;5129134;27;20281;-76
2021/10/13 01:46:20;;;;;;;8.30;5.77;;;;;;;;;;5129680;27;20340;-75
2021/10/13 01:48:47;;;;;;;8.80;5.53;;;;;;;;;;5130032;27;20188;-75
2021/10/13 01:51:15;;;;;;;10.53;5.50;;;;;;;;;;5128876;28;20207;-75
2021/10/13 01:53:43;;;;;;;7.80;5.27;;;;;;;;;;5129432;28;20231;-75
2021/10/13 01:56:11;;;;;;;6.77;5.27;;;;;;;;;;5129191;27;20232;-75
2021/10/13 01:58:39;;;;;;;7.60;4.93;;;;;;;;;;5139372;27;20274;-77
2021/10/13 02:01:09;;;;;;;8.60;5.03;;;;;;;;;;5128784;28;20190;-76
2021/10/13 02:03:39;;;;;;;7.57;4.93;;;;;;;;;;5116733;27;20217;-75
2021/10/13 02:06:07;;;;;;;8.43;5.30;;;;;;;;;;5111699;27;20236;-75
2021/10/13 02:08:36;;;;;;;9.70;5.60;;;;;;;;;;5128657;27;20225;-76
2021/10/13 02:11:05;;;;;;;9.90;6.30;;;;;;;;;;5121201;27;20228;-75
2021/10/13 02:13:32;;;;;;;12.50;6.47;;;;;;;;;;5111479;28;20294;-75
2021/10/13 02:16:00;;;;;;;7.97;5.73;;;;;;;;;;5113608;27;20197;-75
2021/10/13 02:18:29;;;;;;;9.03;5.43;;;;;;;;;;5118898;28;20213;-75
2021/10/13 02:20:58;;;;;;;13.27;6.00;;;;;;;;;;5101379;28;20233;-75
2021/10/13 02:23:26;;;;;;;10.43;6.27;;;;;;;;;;5104727;28;20233;-75
2021/10/13 02:25:54;;;;;;;8.13;5.83;;;;;;;;;;5104202;28;20638;-76
2021/10/13 02:28:32;;;;;;;10.90;5.57;;;;;;;;;;5111467;28;20253;-77
2021/10/13 02:31:00;;;;;;;9.50;5.13;;;;;;;;;;5094449;28;20303;-75
2021/10/13 02:33:27;;;;;;;8.53;5.40;;;;;;;;;;5112381;28;20282;-77
2021/10/13 02:35:54;;;;;;;6.70;5.70;;;;;;;;;;5109606;28;20241;-76
2021/10/13 02:38:23;;;;;;;8.77;6.00;;;;;;;;;;5107556;28;20287;-76
2021/10/13 02:40:50;;;;;;;12.40;6.00;;;;;;;;;;5098511;28;20278;-75
2021/10/13 02:43:17;;;;;;;8.47;6.17;;;;;;;;;;5107291;28;20239;-74
2021/10/13 02:45:47;;;;;;;9.03;5.83;;;;;;;;;;5105772;28;20227;-75
2021/10/13 02:48:17;;;;;;;11.07;6.83;;;;;;;;;;5104852;28;20283;-75
2021/10/13 02:50:48;;;;;;;11.67;6.43;;;;;;;;;;5106782;28;20299;-74
2021/10/13 02:53:19;;;;;;;9.23;6.90;;;;;;;;;;5101736;28;20283;-75
2021/10/13 02:55:50;;;;;;;13.53;7.37;;;;;;;;;;5102348;28;20286;-75
2021/10/13 02:58:21;;;;;;;11.30;7.37;;;;;;;;;;5109808;28;20279;-74
2021/10/13 03:00:50;;;;;;;11.70;7.30;;;;;;;;;;5099984;28;20291;-74
2021/10/13 03:03:19;;;;;;;13.63;7.27;;;;;;;;;;5100335;28;20298;-74
2021/10/13 03:05:48;;;;;;;8.33;6.17;;;;;;;;;;5103427;28;20631;-75
2021/10/13 03:08:17;;;;;;;8.37;6.20;;;;;;;;;;5108105;28;20244;-74
2021/10/13 03:10:47;;;;;;;9.77;6.57;;;;;;;;;;5111319;28;20308;-77
2021/10/13 03:13:17;;;;;;;8.77;6.40;;;;;;;;;;5100918;28;20209;-76
2021/10/13 03:15:45;;;;;;;11.60;7.47;;;;;;;;;;5102168;28;20228;-77
2021/10/13 03:18:12;;;;;;;12.50;8.10;;;;;;;;;;5105738;28;20274;-76
2021/10/13 03:20:41;;;;;;;11.20;7.37;;;;;;;;;;5105249;28;20299;-76
2021/10/13 03:23:08;;;;;;;10.60;7.40;;;;;;;;;;5105493;28;20225;-74
2021/10/13 03:25:35;;;;;;;10.60;7.30;;;;;;;;;;5105259;28;20751;-77
2021/10/13 03:28:04;;;;;;;10.90;7.30;;;;;;;;;;5105985;28;20256;-77
2021/10/13 03:30:33;;;;;;;9.80;7.00;;;;;;;;;;5103153;28;20902;-76
2021/10/13 03:33:00;;;;;;;10.33;6.40;;;;;;;;;;5102432;28;20278;-77
2021/10/13 03:35:27;;;;;;;8.13;6.57;;;;;;;;;;5108809;28;20221;-76
2021/10/13 03:37:55;;;;;;;11.47;7.20;;;;;;;;;;5093746;28;20695;-76
2021/10/13 03:40:23;;;;;;;10.53;6.50;;;;;;;;;;5098036;28;20684;-76
2021/10/13 03:42:50;;;;;;;11.17;6.10;;;;;;;;;;5104916;28;20224;-76
2021/10/13 03:45:18;;;;;;;9.47;6.03;;;;;;;;;;5103526;28;20291;-76
2021/10/13 03:47:47;;;;;;;10.10;6.73;;;;;;;;;;5104507;28;20305;-76
2021/10/13 03:50:14;;;;;;;10.27;6.93;;;;;;;;;;5102897;28;20290;-76
2021/10/13 03:52:42;;;;;;;12.10;7.00;;;;;;;;;;5099435;28;20289;-76
2021/10/13 03:55:10;;;;;;;12.13;7.30;;;;;;;;;;5104695;27;20244;-76
2021/10/13 03:57:37;;;;;;;12.03;7.60;;;;;;;;;;5112096;28;20621;-76
2021/10/13 04:00:06;;;;;;;11.33;7.03;;;;;;;;;;5096323;27;20284;-76
2021/10/13 04:02:33;;;;;;;11.00;6.87;;;;;;;;;;5103841;28;20307;-76
2021/10/13 04:05:02;;;;;;;10.33;7.13;;;;;;;;;;5098914;28;20293;-76
2021/10/13 04:07:29;;;;;;;8.80;7.07;;;;;;;;;;5108115;28;20325;-76
2021/10/13 04:09:57;;;;;;;10.93;7.53;;;;;;;;;;5098108;28;20642;-76
2021/10/13 04:12:24;;;;;;;10.40;7.27;;;;;;;;;;5111142;28;20284;-77
2021/10/13 04:14:51;;;;;;;11.33;7.97;;;;;;;;;;5111501;28;20234;-76
2021/10/13 04:17:19;;;;;;;12.23;7.90;;;;;;;;;;5092025;28;20201;-77
2021/10/13 04:19:46;;;;;;;9.87;7.33;;;;;;;;;;5093129;28;20207;-76
2021/10/13 04:22:14;;;;;;;8.73;6.93;;;;;;;;;;5109028;28;20237;-77
2021/10/13 04:24:42;;;;;;;8.97;7.17;;;;;;;;;;5100839;28;20224;-77
2021/10/13 04:27:09;;;;;;;10.63;7.17;;;;;;;;;;5103179;28;20278;-77
2021/10/13 04:29:36;;;;;;;9.80;7.10;;;;;;;;;;5102126;28;20289;-77
2021/10/13 04:32:03;;;;;;;10.17;7.00;;;;;;;;;;5092358;28;20204;-76
2021/10/13 04:34:30;;;;;;;8.00;6.67;;;;;;;;;;5101966;28;20288;-76
2021/10/13 04:36:58;;;;;;;12.67;6.83;;;;;;;;;;5098600;28;20287;-76
2021/10/13 04:39:26;;;;;;;10.83;7.13;;;;;;;;;;5108448;28;20409;-76
2021/10/13 04:41:53;;;;;;;10.53;6.87;;;;;;;;;;5100091;28;20288;-76
2021/10/13 04:44:20;;;;;;;9.43;6.93;;;;;;;;;;5100692;28;20297;-76
2021/10/13 04:46:48;;;;;;;9.60;7.13;;;;;;;;;;5102702;28;20235;-76
2021/10/13 04:49:15;;;;;;;11.00;7.63;;;;;;;;;;5103707;28;20330;-76
2021/10/13 04:51:42;;;;;;;10.73;7.50;;;;;;;;;;5103630;28;20518;-76
2021/10/13 04:54:09;;;;;;;9.67;7.83;;;;;;;;;;5104829;28;20639;-76
2021/10/13 04:56:38;;;;;;;10.83;8.27;;;;;;;;;;5094513;28;20299;-76
2021/10/13 04:59:05;;;;;;;11.40;7.70;;;;;;;;;;5096097;28;20281;-76
2021/10/13 05:01:33;;;;;;;11.40;7.70;;;;;;;;;;5100228;28;20625;-77
2021/10/13 05:04:00;;;;;;;11.70;7.87;;;;;;;;;;5094930;28;20410;-76
2021/10/13 05:06:27;;;;;;;9.10;6.80;;;;;;;;;;5107452;28;20598;-76
2021/10/13 05:08:54;;;;;;;11.67;6.80;;;;;;;;;;5104260;28;20662;-76
2021/10/13 05:11:21;;;;;;;10.90;7.40;;;;;;;;;;5102071;28;20297;-76
2021/10/13 05:13:50;;;;;;;10.33;6.93;;;;;;;;;;5101789;28;20279;-76
2021/10/13 05:16:17;;;;;;;11.83;7.33;;;;;;;;;;5102977;28;20286;-77
2021/10/13 05:18:44;;;;;;;10.30;6.80;;;;;;;;;;5112123;28;20289;-77
2021/10/13 05:21:11;;;;;;;8.80;6.80;;;;;;;;;;5099335;28;20288;-77
2021/10/13 05:23:38;;;;;;;9.93;6.93;;;;;;;;;;5102554;28;20292;-76
2021/10/13 05:26:05;;;;;;;10.30;6.57;;;;;;;;;;5091329;28;20288;-77
2021/10/13 05:28:33;;;;;;;12.20;7.03;;;;;;;;;;5096347;28;20218;-77
2021/10/13 05:31:01;;;;;;;11.23;6.77;;;;;;;;;;5104478;28;20279;-77
2021/10/13 05:33:28;;;;;;;11.83;7.50;;;;;;;;;;5112298;28;20282;-77
2021/10/13 05:35:56;;;;;;;11.10;6.93;;;;;;;;;;5100108;28;20285;-77
2021/10/13 05:38:23;;;;;;;8.90;6.60;;;;;;;;;;5093797;28;20280;-78
2021/10/13 05:40:50;;;;;;;11.73;6.90;;;;;;;;;;5106370;28;20716;-79
2021/10/13 05:43:17;;;;;;;10.47;6.90;;;;;;;;;;5108284;28;20705;-78
2021/10/13 05:45:44;;;;;;;8.70;6.30;;;;;;;;;;5100708;28;20196;-76
2021/10/13 05:48:13;;;;;;;10.73;6.67;;;;;;;;;;5095748;28;20756;-77
2021/10/13 05:50:40;;;;;;;10.97;6.47;;;;;;;;;;5090650;28;20241;-76
2021/10/13 05:53:08;;;;;;;9.20;6.00;;;;;;;;;;5091680;28;20287;-75
2021/10/13 05:55:35;;;;;;;9.33;6.43;;;;;;;;;;5094085;28;20592;-76
2021/10/13 05:58:05;;;;;;;13.03;6.70;;;;;;;;;;5101910;28;20194;-75
2021/10/13 06:00:32;;;;;;;9.00;6.33;;;;;;;;;;5113023;28;20576;-76
2021/10/13 06:02:59;;;;;;;9.57;6.87;;;;;;;;;;5111194;28;20252;-78
2021/10/13 06:05:28;;;;;;;10.83;6.63;;;;;;;;;;5101373;28;20224;-77
2021/10/13 06:07:55;;;;;;;13.40;6.90;;;;;;;;;;5102544;28;20234;-75
2021/10/13 06:10:23;;;;;;;11.80;7.17;;;;;;;;;;5111199;28;20193;-75
2021/10/13 06:12:50;;;;;;;10.40;6.87;;;;;;;;;;5102639;28;20289;-76
2021/10/13 06:15:19;;;;;;;13.87;7.50;;;;;;;;;;5105317;28;20281;-75
2021/10/13 06:17:46;;;;;;;10.37;7.23;;;;;;;;;;5107879;28;20291;-75
2021/10/13 06:20:13;;;;;;;9.20;7.10;;;;;;;;;;5113060;28;20274;-76
2021/10/13 06:22:42;;;;;;;13.30;7.97;;;;;;;;;;5095162;28;20271;-75
2021/10/13 06:25:10;;;;;;;13.07;7.77;;;;;;;;;;5105871;28;20233;-75
2021/10/13 06:27:37;;;;;;;9.67;7.57;;;;;;;;;;5106792;28;20272;-75
2021/10/13 06:30:04;;;;;;;15.53;7.07;;;;;;;;;;5096588;28;20297;-75
2021/10/13 06:32:32;;;;;;;10.03;7.17;;;;;;;;;;5099365;28;20775;-75
2021/10/13 06:34:59;;;;;;;11.00;8.00;;;;;;;;;;5109576;28;20294;-75
2021/10/13 06:37:26;;;;;;;10.87;8.27;;;;;;;;;;5097729;28;20549;-75
2021/10/13 06:39:54;;;;;;;16.67;10.13;;;;;;;;;;5104067;28;20288;-75
2021/10/13 06:42:22;;;;;;;15.10;10.43;;;;;;;;;;5096360;28;20212;-76
2021/10/13 06:44:49;;;;;;;16.17;10.13;;;;;;;;;;5103212;28;20291;-76
2021/10/13 06:47:16;;;;;;;19.37;9.73;;;;;;;;;;5105311;28;20240;-76
2021/10/13 06:49:43;;;;;;;11.67;8.43;;;;;;;;;;5097776;28;20285;-76
2021/10/13 06:52:10;;;;;;;10.20;7.57;;;;;;;;;;5106346;28;20288;-75
2021/10/13 06:54:38;;;;;;;12.97;7.13;;;;;;;;;;5094706;28;20290;-76
2021/10/13 06:57:06;;;;;;;10.03;7.47;;;;;;;;;;5105745;28;20293;-75
2021/10/13 06:59:33;;;;;;;11.43;7.77;;;;;;;;;;5112166;27;20290;-75
2021/10/13 07:02:00;;;;;;;10.03;7.10;;;;;;;;;;5100531;28;20312;-75
2021/10/13 07:04:28;;;;;;;13.17;7.70;;;;;;;;;;5108606;28;20368;-76
2021/10/13 07:06:55;;;;;;;10.83;8.20;;;;;;;;;;5093243;28;20316;-75
2021/10/13 07:09:22;;;;;;;12.73;8.33;;;;;;;;;;5092741;28;20214;-75
2021/10/13 07:11:49;;;;;;;12.53;8.03;;;;;;;;;;5103259;28;20200;-75
2021/10/13 07:14:18;;;;;;;10.43;7.50;;;;;;;;;;5113397;28;20284;-75
2021/10/13 07:16:46;;;;;;;10.07;7.43;;;;;;;;;;5110728;28;20288;-76
2021/10/13 07:19:13;;;;;;;11.60;7.03;;;;;;;;;;5101050;28;20192;-76
2021/10/13 07:21:40;;;;;;;11.60;7.03;;;;;;;;;;5104161;28;20293;-76
2021/10/13 07:24:08;;;;;;;10.17;7.13;;;;;;;;;;5106153;28;20288;-76
2021/10/13 07:26:36;;;;;;;12.03;6.70;;;;;;;;;;5112578;28;20300;-77
2021/10/13 07:29:03;;;;;;;8.60;6.33;;;;;;;;;;5092726;28;20301;-76
2021/10/13 07:31:32;;;;;;;9.07;6.93;;;;;;;;;;5093047;28;20202;-76
2021/10/13 07:33:59;;;;;;;8.30;6.53;;;;;;;;;;5092949;28;20281;-77
2021/10/13 07:36:27;;;;;;;11.07;6.80;;;;;;;;;;5099800;28;20193;-77
2021/10/13 07:38:54;;;;;;;7.73;5.30;;;;;;;;;;5113732;28;20240;-76
2021/10/13 07:41:22;;;;;;;8.43;5.63;;;;;;;;;;5099832;28;20237;-77
2021/10/13 07:43:50;;;;;;;7.13;5.60;;;;;;;;;;5104968;28;20226;-77
2021/10/13 07:46:18;;;;;;;11.80;6.77;;;;;;;;;;5105688;28;20297;-77
2021/10/13 07:48:46;;;;;;;8.33;6.13;;;;;;;;;;5093148;28;20301;-77
2021/10/13 07:51:13;;;;;;;7.53;5.63;;;;;;;;;;5106080;28;20769;-77
2021/10/13 07:53:40;;;;;;;10.63;5.40;;;;;;;;;;5097251;28;20252;-77
2021/10/13 07:56:08;;;;;;;8.02;5.43;;;;;;;;;;5109302;28;20256;-77
2021/10/13 07:58:35;;;;;;;8.73;5.95;;;;;;;;;;5100477;28;20274;-77
2021/10/13 08:01:02;;;;;;;7.85;6.05;;;;;;;;;;5104207;28;20276;-78
2021/10/13 08:03:29;;;;;;;6.93;6.22;;;;;;;;;;5100063;28;20317;-77
2021/10/13 08:05:58;;;;;;;9.90;6.28;;;;;;;;;;5101480;28;20204;-78
2021/10/13 08:08:25;;;;;;;12.88;6.65;;;;;;;;;;5095605;28;20653;-78
2021/10/13 08:10:52;;;;;;;7.30;6.20;;;;;;;;;;5104885;28;20225;-77
2021/10/13 08:13:19;;;;;;;8.10;6.13;;;;;;;;;;5098887;28;20284;-78
2021/10/13 08:15:47;;;;;;;7.15;5.82;;;;;;;;;;5094228;28;20536;-78
2021/10/13 08:18:14;;;;;;;8.30;6.57;;;;;;;;;;5099352;28;20207;-78
2021/10/13 08:20:41;;;;;;;9.18;6.50;;;;;;;;;;5103376;28;20206;-78
2021/10/13 08:23:09;;;;;;;9.63;7.25;;;;;;;;;;5092843;28;20197;-78
2021/10/13 08:25:37;;;;;;;8.90;6.50;;;;;;;;;;5107722;28;20631;-77
2021/10/13 08:28:04;;;;;;;8.02;6.70;;;;;;;;;;5098133;28;20745;-79
2021/10/13 08:30:31;;;;;;;8.93;6.93;;;;;;;;;;5097761;28;20312;-78
2021/10/13 08:32:58;;;;;;;10.27;6.78;;;;;;;;;;5104681;28;20225;-78
2021/10/13 08:35:25;;;;;;;9.25;6.93;;;;;;;;;;5101311;28;20277;-78
2021/10/13 08:37:53;;;;;;;9.90;7.15;;;;;;;;;;5096335;28;20236;-77
2021/10/13 08:40:21;;;;;;;10.90;6.85;;;;;;;;;;5097405;28;20285;-76
2021/10/13 08:42:52;;;;;;;8.60;6.38;;;;;;;;;;5104657;28;20633;-80
2021/10/13 08:45:20;;;;;;;7.88;7.10;;;;;;;;;;5100790;28;20285;-77
2021/10/13 08:47:47;;;;;;;9.38;7.43;;;;;;;;;;5102792;28;20264;-80
2021/10/13 08:50:14;;;;;;;10.70;7.47;;;;;;;;;;5100161;28;20300;-80
2021/10/13 08:52:41;;;;;;;8.77;7.00;;;;;;;;;;5093080;28;20281;-80
2021/10/13 08:55:09;;;;;;;9.88;7.28;;;;;;;;;;5098557;28;20277;-80
2021/10/13 08:57:37;;;;;;;9.88;6.88;;;;;;;;;;5096766;28;20218;-80
2021/10/13 09:00:05;;;;;;;10.13;6.82;;;;;;;;;;5099229;28;20701;-80
2021/10/13 09:02:40;;;;;;;9.60;6.95;;;;;;;;;;5104450;28;20669;-80
2021/10/13 09:05:08;;;;;;;11.10;7.60;;;;;;;;;;5099657;28;20289;-80
2021/10/13 09:07:36;;;;;;;10.95;7.55;;;;;;;;;;5099583;28;20665;-80
2021/10/13 09:10:04;;;;;;;10.35;7.05;;;;;;;;;;5100971;28;20305;-80
2021/10/13 09:12:32;;;;;;;11.77;8.73;;;;;;;;;;5102812;28;20264;-79
2021/10/13 09:15:09;;;;;;;12.13;8.32;;;;;;;;;;5102605;28;20297;-80
2021/10/13 09:17:53;;;;;;;11.77;7.97;;;;;;;;;;5103913;28;20197;-80
2021/10/13 09:20:21;;;;;;;10.65;8.43;;;;;;;;;;5107837;28;20689;-80
2021/10/13 09:22:59;;;;;;;12.32;9.07;;;;;;;;;;5096005;28;20704;-80
2021/10/13 09:25:26;;;;;;;12.25;9.90;;;;;;;;;;5105313;28;20229;-80
2021/10/13 09:27:53;;;;;;;13.40;9.60;;;;;;;;;;5105220;28;20221;-80
2021/10/13 09:30:28;;;;;;;11.27;9.70;;;;;;;;;;5107825;28;20309;-79
2021/10/13 09:32:55;;;;;;;13.52;10.65;;;;;;;;;;5115080;28;20200;-79
2021/10/13 09:35:29;;;;;;;17.17;13.23;;;;;;;;;;5103749;28;20352;-80
2021/10/13 09:37:56;;;;;;;19.48;16.15;;;;;;;;;;5103224;28;20285;-79
2021/10/13 09:40:27;;;;;;;16.13;13.13;;;;;;;;;;5111031;28;20197;-79
2021/10/13 09:42:58;;;;;;;12.93;11.30;;;;;;;;;;5113230;28;20206;-79
2021/10/13 09:45:28;;;;;;;11.60;10.27;;;;;;;;;;5112550;28;20220;-79
2021/10/13 09:47:59;;;;;;;10.88;9.30;;;;;;;;;;5103855;28;20194;-79
2021/10/13 09:50:38;;;;;;;10.60;8.82;;;;;;;;;;5095188;28;20225;-79
2021/10/13 09:53:15;;;;;;;11.32;9.35;;;;;;;;;;5101705;28;20709;-79
2021/10/13 09:55:43;;;;;;;13.20;8.68;;;;;;;;;;5097992;28;20276;-79
2021/10/13 09:58:22;;;;;;;11.68;9.38;;;;;;;;;;5103309;28;20285;-79
2021/10/13 10:00:51;;;;;;;10.07;9.07;;;;;;;;;;5094064;28;20197;-79
2021/10/13 10:03:19;;;;;;;11.00;9.68;;;;;;;;;;5093686;28;20327;-79
2021/10/13 10:05:47;;;;;;;12.13;10.82;;;;;;;;;;5104811;27;20248;-79
2021/10/13 10:08:17;;;;;;;12.48;11.00;;;;;;;;;;5105501;27;20234;-78
2021/10/13 10:10:59;;;;;;;12.93;10.80;;;;;;;;;;5095235;28;20218;-79
2021/10/13 10:13:34;;;;;;;21.55;17.80;;;;;;;;;;5092670;28;20198;-78
2021/10/13 10:16:02;;;;;;;24.90;22.38;;;;;;;;;;5094247;28;20213;-79
2021/10/13 10:18:32;;;;;;;12.40;10.38;;;;;;;;;;5093993;28;20631;-79
2021/10/13 10:21:14;;;;;;;10.50;9.40;;;;;;;;;;5094443;28;20214;-79
2021/10/13 10:23:41;;;;;;;11.93;8.98;;;;;;;;;;5094038;28;20281;-79
2021/10/13 10:26:23;;;;;;;11.02;8.63;;;;;;;;;;5094250;28;20285;-80
2021/10/13 10:28:55;;;;;;;9.50;8.48;;;;;;;;;;5107497;28;20289;-80
2021/10/13 10:31:33;;;;;;;10.50;8.80;;;;;;;;;;5102529;28;20300;-79
2021/10/13 10:34:08;;;;;;;9.82;8.85;;;;;;;;;;5098027;28;20282;-80
2021/10/13 10:36:50;;;;;;;9.48;7.88;;;;;;;;;;5114616;28;20288;-80
2021/10/13 10:39:18;;;;;;;10.43;9.38;;;;;;;;;;5099692;28;20285;-79
2021/10/13 10:41:47;;;;;;;10.40;9.02;;;;;;;;;;5101303;28;20213;-79
2021/10/13 10:44:30;;;;;;;10.15;8.93;;;;;;;;;;5099552;28;20202;-79
2021/10/13 10:47:03;;;;;;;10.40;9.40;;;;;;;;;;5099183;28;20292;-78
2021/10/13 10:49:45;;;;;;;12.57;10.20;;;;;;;;;;5095213;28;20392;-80
2021/10/13 10:52:12;;;;;;;12.45;8.85;;;;;;;;;;5093490;28;20209;-79
2021/10/13 10:54:40;;;;;;;10.35;9.27;;;;;;;;;;5093439;28;20202;-79
2021/10/13 10:57:30;;;;;;;10.02;9.10;;;;;;;;;;5093678;28;20281;-79
2021/10/13 10:59:57;;;;;;;11.73;8.82;;;;;;;;;;5093673;28;20198;-79
2021/10/13 11:02:26;;;;;;;10.40;9.30;;;;;;;;;;5093329;28;20367;-79
2021/10/13 11:05:02;;;;;;;9.60;8.55;;;;;;;;;;5095826;28;20197;-79
2021/10/13 11:07:29;;;;;;;10.25;8.77;;;;;;;;;;5093068;28;20226;-79
2021/10/13 11:09:59;;;;;;;9.57;8.57;;;;;;;;;;5110261;28;20249;-78
2021/10/13 11:12:27;;;;;;;7.88;7.18;;;;;;;;;;5100702;28;20201;-79
2021/10/13 11:15:08;;;;;;;9.00;7.35;;;;;;;;;;5100692;28;20221;-79
2021/10/13 11:17:36;;;;;;;8.40;7.60;;;;;;;;;;5105987;28;20213;-79
2021/10/13 11:20:07;;;;;;;8.65;7.85;;;;;;;;;;5097384;28;20229;-82
2021/10/13 11:22:35;;;;;;;9.70;8.80;;;;;;;;;;5093760;28;20194;-79
2021/10/13 11:25:12;;;;;;;11.05;9.40;;;;;;;;;;5093483;28;20237;-79
2021/10/13 11:27:40;;;;;;;10.35;9.20;;;;;;;;;;5093614;28;21817;-79
2021/10/13 11:30:15;;;;;;;10.07;8.70;;;;;;;;;;5108686;28;20804;-79
2021/10/13 11:32:44;;;;;;;9.45;8.50;;;;;;;;;;5102330;28;20197;-81
2021/10/13 11:35:14;;;;;;;8.50;7.65;;;;;;;;;;5099448;28;20300;-80
2021/10/13 11:37:42;;;;;;;8.52;7.63;;;;;;;;;;5100769;28;20594;-79
2021/10/13 11:40:14;;;;;;;9.95;7.80;;;;;;;;;;5108659;28;20229;-80
2021/10/13 11:42:42;;;;;;;8.98;7.53;;;;;;;;;;5090534;28;20290;-81
2021/10/13 11:45:13;;;;;;;5.38;4.90;;;;;;;;;;5091574;28;20730;-81
2021/10/13 11:47:41;;;;;;;7.38;6.55;;;;;;;;;;5091883;28;20678;-80
2021/10/13 11:50:11;;;;;;;7.82;6.72;;;;;;;;;;5093907;28;20222;-81
2021/10/13 11:52:40;;;;;;;7.57;6.28;;;;;;;;;;5103945;28;20239;-81
2021/10/13 11:55:08;;;;;;;6.35;5.55;;;;;;;;;;5105618;27;20263;-81
2021/10/13 11:57:36;;;;;;;6.32;5.10;;;;;;;;;;5112889;27;20201;-83
2021/10/13 12:00:10;;;;;;;2.97;2.60;;;;;;;;;;5097270;27;20201;-82
2021/10/13 12:02:38;;;;;;;2.28;1.83;;;;;;;;;;5103249;27;20291;-83
2021/10/13 12:05:06;;;;;;;1.92;1.60;;;;;;;;;;5103717;28;20280;-82
2021/10/13 12:07:42;;;;;;;4.20;2.35;;;;;;;;;;5106774;28;20225;-82
2021/10/13 12:10:09;;;;;;;5.10;2.83;;;;;;;;;;5090968;28;20210;-83
2021/10/13 12:12:37;;;;;;;3.72;1.90;;;;;;;;;;5092042;28;20226;-83
2021/10/13 12:15:16;;;;;;;2.00;1.50;;;;;;;;;;5107078;27;20222;-84
2021/10/13 12:17:44;;;;;;;3.58;2.33;;;;;;;;;;5094713;28;20546;-83
2021/10/13 12:20:17;;;;;;;4.30;2.90;;;;;;;;;;5096321;28;20758;-82
2021/10/13 12:22:50;;;;;;;3.90;3.50;;;;;;;;;;5091631;28;20731;-82
2021/10/13 12:25:29;;;;;;;4.05;3.42;;;;;;;;;;5092451;28;20276;-82
2021/10/13 12:27:56;;;;;;;4.60;4.13;;;;;;;;;;5092028;28;20199;-82
2021/10/13 12:30:31;;;;;;;4.97;4.45;;;;;;;;;;5102587;27;20213;-82
2021/10/13 12:33:02;;;;;;;5.45;4.40;;;;;;;;;;5116773;27;20292;-81
2021/10/13 12:35:30;;;;;;;5.95;4.50;;;;;;;;;;5110219;28;20628;-82
2021/10/13 12:37:58;;;;;;;6.18;4.55;;;;;;;;;;5106788;28;20209;-82
2021/10/13 12:40:26;;;;;;;5.57;4.68;;;;;;;;;;5105465;28;20189;-82
2021/10/13 12:42:55;;;;;;;4.20;3.70;;;;;;;;;;5103491;28;20609;-82
2021/10/13 12:45:25;;;;;;;4.00;2.97;;;;;;;;;;5101421;27;20285;-82
2021/10/13 12:48:08;;;;;;;6.60;3.75;;;;;;;;;;5091411;28;20721;-82
2021/10/13 12:50:35;;;;;;;4.90;4.13;;;;;;;;;;5102851;28;20302;-82
2021/10/13 12:53:03;;;;;;;5.13;3.83;;;;;;;;;;5102643;28;20645;-83
2021/10/13 12:55:31;;;;;;;5.10;3.72;;;;;;;;;;5109188;28;20289;-82
2021/10/13 12:57:58;;;;;;;4.38;3.75;;;;;;;;;;5102646;28;20260;-82
2021/10/13 13:00:25;;;;;;;5.18;4.28;;;;;;;;;;5104737;28;20230;-83
2021/10/13 13:02:52;;;;;;;4.30;3.90;;;;;;;;;;5102532;28;20292;-83
2021/10/13 13:05:19;;;;;;;7.18;4.38;;;;;;;;;;5101655;28;20230;-84
2021/10/13 13:07:47;;;;;;;4.75;3.85;;;;;;;;;;5102737;28;20701;-82
2021/10/13 13:10:17;;;;;;;5.25;3.88;;;;;;;;;;5097859;28;20214;-81
2021/10/13 13:12:44;;;;;;;5.55;3.55;;;;;;;;;;5102131;28;20209;-81
2021/10/13 13:15:12;;;;;;;4.50;3.97;;;;;;;;;;5108807;27;20225;-82
2021/10/13 13:17:39;;;;;;;5.18;4.43;;;;;;;;;;5101080;28;20240;-82
2021/10/13 13:20:06;;;;;;;5.53;3.53;;;;;;;;;;5099469;28;20268;-81
2021/10/13 13:22:33;;;;;;;3.85;3.38;;;;;;;;;;5099064;28;20274;-80
2021/10/13 13:25:02;;;;;;;5.13;3.83;;;;;;;;;;5098550;28;20281;-80
2021/10/13 13:27:30;;;;;;;4.97;3.80;;;;;;;;;;5101248;28;20270;-80
2021/10/13 13:29:57;;;;;;;4.63;3.53;;;;;;;;;;5097305;28;20277;-81
2021/10/13 13:32:25;;;;;;;5.13;3.55;;;;;;;;;;5100134;28;20206;-80
2021/10/13 13:34:52;;;;;;;4.55;3.38;;;;;;;;;;5095703;28;20226;-80
2021/10/13 13:37:19;;;;;;;4.82;3.53;;;;;;;;;;5100423;28;20247;-80
2021/10/13 13:39:47;;;;;;;4.53;3.60;;;;;;;;;;5101169;28;20205;-79
2021/10/13 13:42:14;;;;;;;5.47;4.18;;;;;;;;;;5102753;28;20285;-79
2021/10/13 13:44:42;;;;;;;4.45;3.72;;;;;;;;;;5090408;28;20208;-78
2021/10/13 13:47:10;;;;;;;5.28;3.60;;;;;;;;;;5090609;28;20615;-79
2021/10/13 13:49:37;;;;;;;5.93;3.30;;;;;;;;;;5090219;28;20234;-79
2021/10/13 13:52:04;;;;;;;5.13;3.58;;;;;;;;;;5098669;28;20242;-79
2021/10/13 13:54:32;;;;;;;4.05;3.50;;;;;;;;;;5104134;28;20206;-79
2021/10/13 13:56:59;;;;;;;5.47;3.92;;;;;;;;;;5100784;28;20328;-79
2021/10/13 13:59:26;;;;;;;4.25;3.70;;;;;;;;;;5109913;28;20260;-79
2021/10/13 14:01:55;;;;;;;4.82;3.85;;;;;;;;;;5100558;28;20246;-79
2021/10/13 14:04:22;;;;;;;4.75;3.70;;;;;;;;;;5103602;28;20285;-79
2021/10/13 14:06:49;;;;;;;3.60;3.30;;;;;;;;;;5092094;28;20317;-79
2021/10/13 14:09:16;;;;;;;6.15;2.85;;;;;;;;;;5090835;28;20236;-79
2021/10/13 14:11:43;;;;;;;3.95;2.60;;;;;;;;;;5090544;28;20218;-79
2021/10/13 14:14:11;;;;;;;3.83;2.60;;;;;;;;;;5093854;28;20233;-79
2021/10/13 14:16:38;;;;;;;4.22;3.72;;;;;;;;;;5106129;28;20208;-79
2021/10/13 14:19:06;;;;;;;4.53;3.45;;;;;;;;;;5102369;28;20288;-80
2021/10/13 14:21:34;;;;;;;4.47;2.85;;;;;;;;;;5099314;28;20623;-80
2021/10/13 14:24:01;;;;;;;5.97;3.15;;;;;;;;;;5104485;28;20237;-79
2021/10/13 14:26:28;;;;;;;5.05;3.40;;;;;;;;;;5102093;28;20229;-81
2021/10/13 14:28:55;;;;;;;4.22;3.08;;;;;;;;;;5103372;28;20237;-80
2021/10/13 14:31:24;;;;;;;4.20;3.17;;;;;;;;;;5099834;28;20227;-80
2021/10/13 14:33:52;;;;;;;4.25;2.92;;;;;;;;;;5112319;28;20200;-80
2021/10/13 14:36:20;;;;;;;4.40;2.90;;;;;;;;;;5108621;28;20285;-80
2021/10/13 14:38:48;;;;;;;4.43;2.80;;;;;;;;;;5104361;28;20284;-80
2021/10/13 14:41:16;;;;;;;3.45;2.88;;;;;;;;;;5099717;28;20285;-80
2021/10/13 14:43:44;;;;;;;3.72;2.70;;;;;;;;;;5096443;28;20281;-79
2021/10/13 14:46:12;;;;;;;5.40;2.92;;;;;;;;;;5105380;28;20202;-80
2021/10/13 14:48:39;;;;;;;3.17;2.55;;;;;;;;;;5102554;28;20281;-79